Station info - map view · info · telemetry · weather · raw · status · beacons · messages · bulletins · browse · moving · my account
Callsign, ship name or locator: Clear       
It is possible to search using wildcards (*?) after a prefix. Example: OH*
APRS station KC1TWR-4 - show graphs
Map loading...
Mic-E message: In service
Location: 40°33.38' N 74°15.82' W - locator FN20UN83IM - show map - static map
2.4 miles Southwest bearing 232° from Carteret, Middlesex County, New Jersey, United States [?]
6.5 miles West bearing 266° from Staten Island, Richmond County, New York, United States
17.4 miles Southwest bearing 231° from New York City, New York, United States
17.7 miles West bearing 249° from Brooklyn, Kings County, New York, United States
Last position: 2018-10-20 14:36:23 EDT (3d 3h30m ago)
2018-10-20 14:36:23 EDT local time at Carteret, United States [?]
Altitude: 3 ft
Course: 38°
Speed: 12 MPH
Device: Kenwood: TM-D710 (rig)
Last path: KC1TWR-4>T0SS3X via K2GE-13,WIDE1,WA2FPB-5*,qAR,KC2TER-11 (good)
Positions stored: 4498
Packet rate: 122 seconds between packets on average during 5988 seconds.
Other SSIDs: KC1TWR-10
Stations near current position of KC1TWR-4 - show more
callsign distance last heard - EDT      callsign distance last heard - EDT
EW59220.6 miles 264°2018-10-23 18:00:16 DW55161.4 miles 340°2018-10-23 17:46:20
N2VYT-11.5 miles 285°2018-10-23 17:05:40 KA2UOL2.7 miles 61°2018-10-21 23:00:57
KC2VRJ-143.0 miles 240°2018-10-18 22:37:38 KD2NPW3.5 miles 5°2018-10-20 22:52:38
N2VYT B3.8 miles 255°2018-10-23 18:04:27 N2VYT-B3.8 miles 255°2018-10-23 18:04:37
N2VYT-33.8 miles 255°2018-10-23 17:28:40 N2VYT-43.8 miles 255°2018-10-23 17:29:28
N2VYT-63.8 miles 255°2018-10-23 17:25:14 N2VYT-73.8 miles 255°2018-10-23 17:25:39
N2VYT-53.8 miles 255°2018-10-23 17:16:54 N2VYT-23.8 miles 255°2018-10-23 17:06:09
N2VYT-83.8 miles 255°2018-10-23 17:17:07 N2VYT-93.8 miles 255°2018-10-23 17:26:41
N2VYT-103.8 miles 255°2018-10-23 17:28:11 N2VYT-N3.8 miles 255°2018-10-23 18:04:56
N2VYT-113.8 miles 255°2018-10-23 17:26:43 N2VYT-123.8 miles 255°2018-10-23 17:26:28
Stations which heard KC1TWR-4 directly on radio –
callsign pkts first heard - EDT last heard longest (tx => rx) longest at - EDT
W3UD-3 3 2018-10-20 12:43:35 2018-10-20 12:58:57 FM29FQ > FM29CQ 13.7 miles 272° 2018-10-20 12:58:57
W1OEM 1 2018-10-02 10:50:53 2018-10-02 10:50:53 FN31WI > FN31VI 4.2 miles 265° 2018-10-02 10:50:53
KD4PBS-3 11 2018-10-12 18:19:21 2018-10-17 16:03:25 FM05LX > FM05RQ 35.9 miles 125° 2018-10-15 10:32:43
N3KTX-7 1 2018-10-20 11:17:15 2018-10-20 11:17:15 FM19RG > FM18XW 35.1 miles 133° 2018-10-20 11:17:15
N3KTX-1 4 2018-10-20 10:49:44 2018-10-20 11:09:31 FM19NC > FM19PG 16.2 miles 31° 2018-10-20 10:49:44
N3XJT-1 8 2018-10-20 12:15:40 2018-10-20 12:50:08 FM29EQ > FM29AN 18.1 miles 246° 2018-10-20 12:50:08
N3HF-1 2 2018-10-20 09:53:50 2018-10-20 10:12:43 FM18JS > FM18GQ 14.1 miles 244° 2018-10-20 10:12:43
KG4URP-1 1 2018-10-20 10:04:56 2018-10-20 10:04:56 FM18JQ > FM18IQ 3.1 miles 290° 2018-10-20 10:04:56
W1HAF-2 20 2018-10-01 13:16:43 2018-10-06 13:51:05 FN31XI > FN31WI 4.3 miles 275° 2018-10-05 17:41:43
W4RAT-2 6 2018-10-20 08:56:05 2018-10-20 09:14:45 FM17GP > FM17FU 15.2 miles 341° 2018-10-20 08:56:05
W4RAT-3 6 2018-10-20 08:43:13 2018-10-20 08:58:08 FM17GQ > FM17GM 10.4 miles 174° 2018-10-20 08:58:08
W4RAT-5 11 2018-10-20 07:53:23 2018-10-20 08:51:16 FM17GN > FM17IE 28.0 miles 161° 2018-10-20 08:51:16
K3TU 6 2018-10-20 13:22:09 2018-10-20 13:40:28 FM29NX > FM29KX 13.5 miles 272° 2018-10-20 13:40:28
NV4FM-5 7 2018-10-20 10:20:10 2018-10-20 10:31:42 FM19KA > FM18JV 8.2 miles 206° 2018-10-20 10:31:42
W4DEX 1 2018-10-15 10:22:49 2018-10-15 10:22:49 FM05MV > EM95TG 92.6 miles 241° 2018-10-15 10:22:49
KA2RLM-15 3 2018-10-20 14:04:35 2018-10-20 14:12:39 FN20RG > FN20RJ 8.9 miles 332° 2018-10-20 14:06:36
K2GE-13 3 2018-10-20 14:14:47 2018-10-20 14:36:23 FN20UN > FN20UK 7.5 miles 199° 2018-10-20 14:36:23
K3GJ-13 1 2018-10-20 10:44:51 2018-10-20 10:44:51 FM19MA > FM18NU 13.6 miles 160° 2018-10-20 10:44:51
KC2QVT-15 2 2018-10-20 13:50:52 2018-10-20 13:52:06 FN20PC > FM29QX 10.8 miles 161° 2018-10-20 13:52:06
KE4U-1 1 2018-10-20 06:04:26 2018-10-20 06:04:26 FM06OC > FM06PB 4.7 miles 121° 2018-10-20 06:04:26
N1LMA-9 17 2018-10-02 10:46:05 2018-10-06 13:52:05 FN31XI > FN41AI 5.6 miles 80° 2018-10-04 21:14:50
EKONCT 13 2018-10-02 10:50:48 2018-10-06 08:26:32 FN31WI > FN41BP 25.0 miles 36° 2018-10-02 10:55:39
WATECT 180 2018-10-01 13:03:52 2018-10-06 13:50:35 FN41AI > FN31WJ 8.7 miles 282° 2018-10-03 20:42:40
SALECT 4 2018-10-02 12:17:55 2018-10-04 06:25:26 FN31XH > FN31VL 13.2 miles 314° 2018-10-03 18:45:15
WR4AGC-3 80 2018-10-10 12:48:13 2018-10-20 06:26:53 FM06PD > FM06LB 18.8 miles 253° 2018-10-20 06:15:25
W4UNC-3 50 2018-10-10 12:45:41 2018-10-20 06:48:35 FM06TI > FM06NF 29.8 miles 256° 2018-10-20 06:48:35
AE4ML-1 1 2018-10-20 09:34:03 2018-10-20 09:34:03 FM18FH > FM18GH 2.5 miles 88° 2018-10-20 09:34:03
NR3I 4 2018-10-20 12:52:27 2018-10-20 12:56:35 FM29FQ > FM29ER 4.9 miles 307° 2018-10-20 12:56:35
WB4P-10 6 2018-10-10 16:35:59 2018-10-16 16:51:05 FM05MW > FM05LW 1.2 miles 259° 2018-10-16 16:49:23
BRISTL 2 2018-10-20 13:38:52 2018-10-20 13:42:50 FM29NX > FN20NC 8.7 miles 14° 2018-10-20 13:38:52
MATWAN 12 2018-10-20 14:02:35 2018-10-20 14:26:23 FN20RG > FN20VJ 17.4 miles 55° 2018-10-20 14:06:27
N3OZD 3 2018-10-20 11:21:53 2018-10-20 11:34:32 FM19UL > FM19SK 11.1 miles 260° 2018-10-20 11:34:32
KK4NDE-3 1 2018-10-20 09:30:33 2018-10-20 09:30:33 FM18FF > FM18GF 1.1 miles 76° 2018-10-20 09:30:33
K3PDR-3 3 2018-10-20 13:38:50 2018-10-20 13:50:11 FN20PC > FN20JB 23.6 miles 269° 2018-10-20 13:50:11
K3FOX-1 8 2018-10-20 11:05:10 2018-10-20 11:17:15 FM19RG > FM19QF 7.9 miles 232° 2018-10-20 11:17:15
MDAAOC-1 2 2018-10-20 11:17:18 2018-10-20 11:19:50 FM19RH > FM19QD 11.9 miles 205° 2018-10-20 11:19:50
W2MER 3 2018-10-20 13:53:05 2018-10-20 14:03:08 FN20PD > FN20PG 9.1 miles 358° 2018-10-20 13:53:05
W4KEL-12 2 2018-10-20 09:42:15 2018-10-20 10:12:42 FM18JS > FM08QH 83.6 miles 247° 2018-10-20 10:12:42
K4BBB-1 1 2018-10-20 10:22:29 2018-10-20 10:22:29 FM18JV > FM18JV 0.6 miles 87° 2018-10-20 10:22:29

Only position packets which were originated by the station are shown here. The range statistics show some extra long hops, because some digipeaters do not correctly add themselves to the digipeater path. Please check the raw packets.
About this site
This page shows real-time information collected from the Automatic Position Reporting System Internet network (APRS-IS). APRS is used by amateur (ham) radio operators to transmit real-time position information, weather data, telemetry and messages over the radio. A vehicle equipped with a GPS receiver, a VHF transmitter or HF transceiver and a small computer device called a tracker transmits it's location, speed and course in a small data packet, which is then received by a nearby iGate receiving site which forwards the packet on the Internet. Systems connected to the Internet can send information on the APRS-IS without a radio transmitter, or collect and display information transmitted anywhere in the world.
FAQ · Blog · Discussion group · Linking to aprs.fi · AIS sites · Service status · Database statistics · Advertising on aprs.fi · Technical details · API · Change log · Planned changes · Credits and thanks · Terms Of Service · iPhone/iPad APRS